Time;durP1;ratioP1;P1;durP2;ratioP2;P2;SDS_P1;SDS_P2;PMS_P1;PMS_P2;Temp;Humidity;BMP_temperature;BMP_pressure;BME280_temperature;BME280_humidity;BME280_pressure;Samples;Min_cycle;Max_cycle;Signal;HPM_P1;HPM_P2
2022/03/11 00:02:21;;;;;;;8.10;3.20;;;;;;;-7.56;43.46;101546.70;1749825;81;21108;-67
2022/03/11 00:04:48;;;;;;;6.63;3.20;;;;;;;-7.58;43.43;101541.02;1749791;82;21226;-68
2022/03/11 00:07:16;;;;;;;7.63;3.70;;;;;;;-7.60;43.53;101542.19;1749699;81;21073;-68
2022/03/11 00:09:44;;;;;;;5.40;3.20;;;;;;;-7.59;44.28;101535.02;1749698;81;21057;-69
2022/03/11 00:12:12;;;;;;;6.67;3.13;;;;;;;-7.61;44.33;101543.00;1749844;82;21649;-69
2022/03/11 00:14:41;;;;;;;8.07;2.70;;;;;;;-7.60;43.52;101537.08;1756292;81;21104;-67
2022/03/11 00:17:08;;;;;;;11.30;3.37;;;;;;;-7.62;43.17;101530.98;1757849;81;21230;-69
2022/03/11 00:19:34;;;;;;;9.27;3.43;;;;;;;-7.62;43.55;101524.19;1757540;81;21058;-68
2022/03/11 00:22:02;;;;;;;8.43;3.47;;;;;;;-7.62;43.48;101530.98;1757745;81;21021;-69
2022/03/11 00:24:31;;;;;;;10.00;3.10;;;;;;;-7.66;43.52;101527.75;1758032;81;21068;-69
2022/03/11 00:26:58;;;;;;;13.37;3.07;;;;;;;-7.67;43.60;101532.39;1757678;81;21048;-69
2022/03/11 00:29:25;;;;;;;7.93;3.13;;;;;;;-7.68;43.46;101530.64;1757373;81;21287;-68
2022/03/11 00:31:53;;;;;;;8.13;3.07;;;;;;;-7.69;43.64;101531.42;1757626;81;21048;-68
2022/03/11 00:34:20;;;;;;;6.37;3.00;;;;;;;-7.72;43.54;101529.97;1757622;81;21072;-68
2022/03/11 00:36:46;;;;;;;10.03;3.40;;;;;;;-7.75;44.13;101517.89;1762797;79;21086;-68
2022/03/11 00:39:14;;;;;;;7.80;3.30;;;;;;;-7.75;44.08;101527.20;1774622;80;21030;-68
2022/03/11 00:41:41;;;;;;;6.27;3.03;;;;;;;-7.79;43.87;101526.56;1774349;80;21256;-67
2022/03/11 00:44:10;;;;;;;8.53;3.13;;;;;;;-7.82;44.21;101521.75;1774456;80;21078;-68
2022/03/11 00:46:37;;;;;;;9.13;3.27;;;;;;;-7.81;44.31;101522.22;1774659;80;21094;-68
2022/03/11 00:49:03;;;;;;;3.93;2.57;;;;;;;-7.81;44.31;101519.67;1774799;80;21086;-69
2022/03/11 00:51:31;;;;;;;7.07;3.60;;;;;;;-7.86;44.91;101517.24;1774728;80;21018;-68
2022/03/11 00:53:58;;;;;;;13.87;3.20;;;;;;;-7.88;44.82;101515.39;1775343;80;21202;-68
2022/03/11 00:56:27;;;;;;;9.87;3.60;;;;;;;-7.89;44.96;101515.79;1774462;80;21125;-69
2022/03/11 00:58:53;;;;;;;7.73;3.13;;;;;;;-7.89;45.25;101511.95;1774887;80;21034;-68
2022/03/11 01:01:20;;;;;;;12.53;3.00;;;;;;;-7.90;44.67;101512.73;1774433;79;21030;-68
2022/03/11 01:03:46;;;;;;;8.37;3.20;;;;;;;-7.90;44.98;101511.45;1774508;80;21046;-68
2022/03/11 01:06:13;;;;;;;5.33;2.63;;;;;;;-7.92;44.62;101509.20;1774491;80;21566;-68
2022/03/11 01:08:39;;;;;;;10.60;2.77;;;;;;;-7.94;45.15;101500.55;1774509;80;21042;-69
2022/03/11 01:11:08;;;;;;;7.80;3.13;;;;;;;-7.95;44.67;101510.70;1774446;79;21034;-68
2022/03/11 01:13:36;;;;;;;6.67;3.10;;;;;;;-7.98;44.73;101503.73;1772729;80;21055;-68
2022/03/11 01:16:02;;;;;;;5.70;2.73;;;;;;;-8.01;44.90;101507.37;1766465;81;21094;-67
2022/03/11 01:18:29;;;;;;;7.63;2.43;;;;;;;-8.02;45.00;101503.06;1766402;81;21732;-67
2022/03/11 01:20:56;;;;;;;4.90;3.10;;;;;;;-8.06;44.98;101499.83;1766525;81;21530;-68
2022/03/11 01:23:23;;;;;;;4.83;2.30;;;;;;;-8.04;45.19;101505.92;1766504;81;21058;-68
2022/03/11 01:25:49;;;;;;;6.63;2.70;;;;;;;-8.06;45.19;101501.10;1766507;81;21059;-67
2022/03/11 01:28:16;;;;;;;10.57;2.70;;;;;;;-8.07;45.27;101500.63;1766774;79;21055;-67
2022/03/11 01:30:43;;;;;;;9.57;2.53;;;;;;;-8.09;45.05;101510.75;1766818;81;21191;-68
2022/03/11 01:33:10;;;;;;;5.80;2.77;;;;;;;-8.07;45.14;101505.74;1766579;81;21109;-67
2022/03/11 01:35:38;;;;;;;3.37;2.10;;;;;;;-8.09;45.48;101508.60;1766427;81;21042;-68
2022/03/11 01:38:06;;;;;;;7.60;2.30;;;;;;;-8.11;46.27;101510.17;1766616;81;21546;-67
2022/03/11 01:40:34;;;;;;;4.93;2.40;;;;;;;-8.14;45.95;101503.58;1766387;81;21542;-68
2022/03/11 01:43:00;;;;;;;5.07;2.83;;;;;;;-8.13;46.58;101514.31;1766190;81;21302;-68
2022/03/11 01:45:27;;;;;;;5.97;2.40;;;;;;;-8.14;46.13;101506.13;1766311;81;21072;-68
2022/03/11 01:47:53;;;;;;;5.67;2.47;;;;;;;-8.17;46.22;101500.84;1766458;81;21066;-68
2022/03/11 01:50:20;;;;;;;7.43;3.00;;;;;;;-8.18;45.86;101510.60;1793457;79;21065;-68
2022/03/11 01:52:47;;;;;;;6.43;2.70;;;;;;;-8.22;45.73;101501.45;1798056;79;21010;-67
2022/03/11 01:55:14;;;;;;;7.77;2.90;;;;;;;-8.25;46.22;101501.27;1798278;79;21340;-68
2022/03/11 01:57:46;;;;;;;6.90;2.97;;;;;;;-8.24;45.75;101499.59;1797876;79;21073;-68
2022/03/11 02:00:15;;;;;;;9.47;2.80;;;;;;;-8.27;45.94;101507.96;1798005;78;21081;-69
2022/03/11 02:02:43;;;;;;;3.65;2.42;;;;;;;-8.29;45.87;101505.70;1798146;79;21081;-67
2022/03/11 02:05:10;;;;;;;4.43;2.50;;;;;;;-8.32;46.09;101504.25;1767558;79;21029;-67
2022/03/11 02:07:37;;;;;;;6.50;2.40;;;;;;;-8.33;46.41;101501.59;1797975;79;21245;-67
2022/03/11 02:10:06;;;;;;;5.07;2.50;;;;;;;-8.32;46.15;101501.70;1797742;78;22287;-68
2022/03/11 02:12:37;;;;;;;2.90;1.77;;;;;;;-8.35;46.47;101501.89;1797796;79;21033;-67
2022/03/11 02:15:08;;;;;;;6.57;2.60;;;;;;;-8.39;46.85;101503.80;1803790;79;21515;-68
2022/03/11 02:17:35;;;;;;;4.70;2.20;;;;;;;-8.42;47.79;101506.17;1806807;79;22457;-68
2022/03/11 02:20:05;;;;;;;6.43;2.87;;;;;;;-8.42;46.90;101505.77;1806439;79;21529;-70
2022/03/11 02:22:36;;;;;;;4.73;2.30;;;;;;;-8.43;47.10;101506.98;1806619;79;21028;-68
2022/03/11 02:25:07;;;;;;;6.03;2.80;;;;;;;-8.43;47.69;101509.13;1806838;79;21058;-69
2022/03/11 02:27:38;;;;;;;6.60;2.37;;;;;;;-8.47;47.48;101496.55;1806407;79;22063;-68
2022/03/11 02:30:17;;;;;;;4.93;2.50;;;;;;;-8.47;47.17;101509.72;1806654;79;21041;-67
2022/03/11 02:32:44;;;;;;;6.13;2.50;;;;;;;-8.49;46.45;101507.09;1806084;79;21037;-68
2022/03/11 02:35:11;;;;;;;3.30;2.20;;;;;;;-8.48;46.63;101509.25;1806390;79;21065;-68
2022/03/11 02:37:39;;;;;;;6.77;2.20;;;;;;;-8.51;46.82;101517.61;1806685;79;22104;-67
2022/03/11 02:40:09;;;;;;;7.13;3.10;;;;;;;-8.52;46.77;101521.33;1806452;79;21076;-68
2022/03/11 02:42:35;;;;;;;4.77;2.20;;;;;;;-8.56;46.90;101521.52;1806792;79;21041;-66
2022/03/11 02:45:07;;;;;;;5.08;2.35;;;;;;;-8.58;47.04;101514.19;1806712;79;21092;-69
2022/03/11 02:47:34;;;;;;;8.93;2.77;;;;;;;-8.58;47.43;101517.11;1806710;79;21502;-68
2022/03/11 02:50:01;;;;;;;5.37;2.60;;;;;;;-8.59;47.64;101525.58;1799064;79;21537;-68
2022/03/11 02:52:31;;;;;;;6.47;2.63;;;;;;;-8.61;47.30;101522.92;1796176;79;21031;-68
2022/03/11 02:54:57;;;;;;;7.43;2.77;;;;;;;-8.60;48.21;101526.34;1796197;79;21027;-68
2022/03/11 02:57:24;;;;;;;4.10;2.33;;;;;;;-8.64;48.25;101523.14;1796117;79;21209;-67
2022/03/11 02:59:50;;;;;;;4.83;2.30;;;;;;;-8.66;47.50;101523.91;1796239;79;21054;-67
2022/03/11 03:02:17;;;;;;;5.43;2.70;;;;;;;-8.67;48.74;101520.88;1796139;78;21129;-67
2022/03/11 03:04:44;;;;;;;6.13;3.37;;;;;;;-8.68;48.29;101513.98;1796185;79;21061;-68
2022/03/11 03:07:11;;;;;;;7.60;2.83;;;;;;;-8.68;47.82;101516.54;1796327;79;21034;-68
2022/03/11 03:09:41;;;;;;;7.43;2.90;;;;;;;-8.70;48.01;101519.39;1795970;78;21242;-67
2022/03/11 03:12:10;;;;;;;5.40;2.67;;;;;;;-8.72;47.75;101515.88;1796034;79;21022;-68
2022/03/11 03:14:37;;;;;;;6.93;2.93;;;;;;;-8.75;47.99;101505.45;1796030;79;21331;-67
2022/03/11 03:17:06;;;;;;;7.30;3.47;;;;;;;-8.78;47.52;101506.55;1795922;79;21011;-68
2022/03/11 03:19:32;;;;;;;8.57;3.00;;;;;;;-8.77;48.22;101512.53;1796048;79;21006;-69
2022/03/11 03:21:59;;;;;;;4.37;2.40;;;;;;;-8.79;47.67;101512.83;1796064;79;21372;-70
2022/03/11 03:24:26;;;;;;;4.77;2.70;;;;;;;-8.81;47.97;101510.56;1796011;79;21011;-68
2022/03/11 03:26:55;;;;;;;10.23;3.17;;;;;;;-8.85;48.07;101517.17;1796380;79;21070;-69
2022/03/11 03:29:23;;;;;;;7.10;3.20;;;;;;;-8.90;48.27;101513.45;1795898;79;21027;-67
2022/03/11 03:31:50;;;;;;;8.73;2.83;;;;;;;-8.91;48.48;101515.09;1796530;79;21096;-68
2022/03/11 03:34:18;;;;;;;7.20;2.67;;;;;;;-8.91;48.31;101521.87;1795278;79;21562;-66
2022/03/11 03:36:46;;;;;;;8.80;3.40;;;;;;;-8.94;48.55;101521.69;1796128;79;21495;-68
2022/03/11 03:39:12;;;;;;;7.93;2.57;;;;;;;-8.94;48.76;101520.41;1796216;79;22075;-68
2022/03/11 03:41:38;;;;;;;5.57;2.67;;;;;;;-8.95;48.90;101518.27;1796146;79;21014;-68
2022/03/11 03:44:06;;;;;;;7.67;3.20;;;;;;;-8.95;48.91;101519.91;1796100;79;21077;-68
2022/03/11 03:46:32;;;;;;;6.20;2.50;;;;;;;-8.96;49.10;101522.86;1795898;79;22143;-67
2022/03/11 03:49:00;;;;;;;8.27;3.13;;;;;;;-8.96;49.24;101521.58;1799324;79;21021;-67
2022/03/11 03:51:27;;;;;;;4.17;2.63;;;;;;;-8.97;49.44;101525.30;1806615;79;21486;-67
2022/03/11 03:53:53;;;;;;;6.47;2.70;;;;;;;-8.98;49.63;101523.55;1806715;79;21041;-68
2022/03/11 03:56:20;;;;;;;6.20;3.03;;;;;;;-9.00;50.03;101519.61;1806520;79;21040;-68
2022/03/11 03:58:47;;;;;;;8.80;3.43;;;;;;;-9.02;49.28;101520.30;1806495;79;21084;-68
2022/03/11 04:01:14;;;;;;;5.73;2.97;;;;;;;-9.04;49.33;101524.42;1806048;79;21028;-67
2022/03/11 04:03:42;;;;;;;6.03;3.10;;;;;;;-9.07;49.46;101523.44;1806344;79;21021;-69
2022/03/11 04:06:09;;;;;;;8.60;3.00;;;;;;;-9.05;49.55;101523.55;1806367;79;21025;-68
2022/03/11 04:08:35;;;;;;;8.03;3.43;;;;;;;-9.08;49.48;101522.08;1806773;79;21803;-67
2022/03/11 04:11:03;;;;;;;6.10;3.13;;;;;;;-9.09;49.77;101513.55;1806582;79;21207;-66
2022/03/11 04:13:30;;;;;;;6.73;2.83;;;;;;;-9.09;50.03;101521.20;1806537;79;21038;-67
2022/03/11 04:15:58;;;;;;;6.93;2.90;;;;;;;-9.11;50.51;101518.95;1800033;78;21072;-67
2022/03/11 04:18:27;;;;;;;6.60;2.90;;;;;;;-9.13;50.03;101525.62;1798487;79;21529;-66
2022/03/11 04:20:54;;;;;;;8.20;2.73;;;;;;;-9.14;50.14;101528.94;1799029;79;21549;-68
2022/03/11 04:23:23;;;;;;;4.73;3.03;;;;;;;-9.12;50.24;101531.59;1798916;79;21243;-68
2022/03/11 04:25:49;;;;;;;9.00;2.70;;;;;;;-9.13;50.81;101533.27;1798104;79;21097;-67
2022/03/11 04:28:17;;;;;;;6.07;2.97;;;;;;;-9.13;50.76;101531.13;1798069;79;21513;-67
2022/03/11 04:30:44;;;;;;;7.73;2.60;;;;;;;-9.16;50.89;101527.08;1773394;79;21091;-68
2022/03/11 04:33:11;;;;;;;9.37;3.53;;;;;;;-9.16;50.62;101531.78;1766429;81;21042;-68
2022/03/11 04:35:38;;;;;;;7.77;3.60;;;;;;;-9.17;50.97;101532.58;1766788;81;21773;-67
2022/03/11 04:38:04;;;;;;;8.53;3.60;;;;;;;-9.18;51.36;101529.55;1766338;81;21499;-66
2022/03/11 04:40:31;;;;;;;5.40;3.23;;;;;;;-9.18;51.46;101537.20;1766390;81;21062;-67
2022/03/11 04:42:58;;;;;;;9.87;3.20;;;;;;;-9.18;51.32;101542.31;1766355;81;21125;-68
2022/03/11 04:45:26;;;;;;;7.13;3.27;;;;;;;-9.16;51.14;101544.54;1766318;81;21008;-67
2022/03/11 04:47:53;;;;;;;6.60;3.10;;;;;;;-9.16;51.11;101540.70;1766436;81;21286;-67
2022/03/11 04:50:19;;;;;;;8.33;3.10;;;;;;;-9.16;51.33;101548.36;1764777;80;21014;-67
2022/03/11 04:52:46;;;;;;;8.70;2.97;;;;;;;-9.14;51.06;101551.91;1790197;80;21571;-68
2022/03/11 04:55:15;;;;;;;6.10;2.87;;;;;;;-9.12;50.98;101555.44;1790396;79;21856;-68
2022/03/11 04:57:42;;;;;;;10.50;3.90;;;;;;;-9.11;50.99;101564.89;1790183;79;21079;-68
2022/03/11 05:00:11;;;;;;;11.30;3.97;;;;;;;-9.08;50.70;101560.38;1788859;78;21267;-70
2022/03/11 05:02:44;;;;;;;6.87;3.77;;;;;;;-9.07;50.73;101564.27;1766442;81;21401;-69
2022/03/11 05:05:10;;;;;;;6.25;3.50;;;;;;;-9.05;50.56;101566.94;1765946;81;21050;-68
2022/03/11 05:07:37;;;;;;;7.53;3.13;;;;;;;-8.99;50.53;101566.47;1766523;81;22155;-66
2022/03/11 05:10:06;;;;;;;9.00;3.77;;;;;;;-8.96;50.61;101571.36;1766420;79;21614;-68
2022/03/11 05:12:35;;;;;;;8.97;3.70;;;;;;;-8.91;50.59;101572.94;1766732;81;21190;-68
2022/03/11 05:15:02;;;;;;;9.67;3.57;;;;;;;-8.86;51.05;101577.94;1769835;80;21050;-67
2022/03/11 05:28:58;;;;;;;13.30;3.80;;;;;;;-4.45;40.98;101553.17;1840603;78;22680;-68
2022/03/11 05:31:26;;;;;;;10.88;3.92;;;;;;;-4.01;40.75;101554.32;1815831;79;20981;-68
2022/03/11 05:33:54;;;;;;;9.40;4.20;;;;;;;-3.51;39.13;101555.20;1815779;79;21923;-70
2022/03/11 05:36:21;;;;;;;16.82;4.33;;;;;;;-3.07;38.22;101551.03;1815902;79;21044;-68
2022/03/11 05:38:48;;;;;;;17.77;4.33;;;;;;;-2.79;36.84;101551.31;1815801;79;20938;-69
2022/03/11 05:41:15;;;;;;;19.92;5.05;;;;;;;-2.49;36.73;101553.34;1815802;79;21022;-68
2022/03/11 05:43:42;;;;;;;15.85;4.00;;;;;;;-2.15;35.86;101549.48;1815574;79;21072;-69
2022/03/11 05:46:08;;;;;;;13.68;4.55;;;;;;;-1.95;35.07;101557.55;1816035;79;21853;-69
2022/03/11 05:48:35;;;;;;;15.68;4.17;;;;;;;-1.85;34.76;101550.14;1811179;79;21556;-68
2022/03/11 05:51:03;;;;;;;11.00;4.17;;;;;;;-1.65;34.80;101553.03;1782075;80;21101;-70
2022/03/11 05:53:31;;;;;;;16.97;4.33;;;;;;;-1.38;34.05;101550.92;1782044;80;21026;-68
2022/03/11 05:55:57;;;;;;;18.90;5.95;;;;;;;-1.18;33.89;101557.66;1782349;80;21042;-69
2022/03/11 05:58:24;;;;;;;12.58;4.25;;;;;;;-1.10;33.01;101561.39;1781779;80;21539;-68
2022/03/11 06:00:51;;;;;;;14.80;4.33;;;;;;;-0.99;33.01;101563.44;1782860;79;21549;-69
2022/03/11 06:03:17;;;;;;;8.55;3.90;;;;;;;-0.82;33.44;101557.12;1783648;80;21119;-68
2022/03/11 06:05:44;;;;;;;12.60;4.00;;;;;;;-0.54;33.16;101565.75;1783671;80;21052;-69
2022/03/11 06:08:11;;;;;;;10.15;3.67;;;;;;;-0.31;32.62;101559.56;1783705;80;21556;-69
2022/03/11 06:10:38;;;;;;;19.05;4.20;;;;;;;-0.27;31.59;101547.61;1783761;80;22136;-67
2022/03/11 06:13:06;;;;;;;21.93;4.83;;;;;;;-0.34;30.86;101550.42;1783760;80;21540;-69
2022/03/11 06:15:32;;;;;;;9.40;4.22;;;;;;;-0.38;31.46;101558.92;1783549;80;21545;-68
2022/03/11 06:17:59;;;;;;;28.25;4.75;;;;;;;-0.22;31.76;101559.84;1783952;80;21563;-70
2022/03/11 06:20:28;;;;;;;16.35;4.03;;;;;;;0.12;31.29;101554.78;1795870;79;21533;-69
2022/03/11 06:22:54;;;;;;;19.37;4.15;;;;;;;0.52;30.37;101569.70;1797288;79;21234;-70
2022/03/11 06:25:20;;;;;;;34.92;4.30;;;;;;;0.59;29.45;101561.25;1797341;79;21066;-68
2022/03/11 06:27:47;;;;;;;23.80;3.70;;;;;;;0.62;28.76;101553.58;1797133;79;21634;-68
2022/03/11 06:30:14;;;;;;;20.62;4.90;;;;;;;0.56;28.82;101557.72;1797327;79;21042;-68
2022/03/11 06:32:42;;;;;;;10.50;3.67;;;;;;;0.81;29.31;101559.23;1797294;79;21544;-68
2022/03/11 06:35:10;;;;;;;13.18;3.75;;;;;;;1.04;28.47;101547.72;1797520;79;21189;-70
2022/03/11 06:37:37;;;;;;;17.25;4.15;;;;;;;0.99;28.33;101548.03;1797189;79;21061;-68
2022/03/11 06:40:06;;;;;;;14.35;3.92;;;;;;;0.98;28.50;101554.04;1796944;79;21573;-68
2022/03/11 06:42:35;;;;;;;20.48;7.20;;;;;;;1.18;28.50;101545.88;1797102;79;21010;-69
2022/03/11 06:45:03;;;;;;;10.45;3.80;;;;;;;1.45;28.43;101547.83;1796700;79;22226;-69
2022/03/11 06:47:29;;;;;;;14.15;3.75;;;;;;;1.82;28.23;101542.58;1796916;79;21093;-69
2022/03/11 06:49:56;;;;;;;17.62;4.00;;;;;;;2.20;27.51;101530.34;1813666;78;21056;-68
2022/03/11 06:52:22;;;;;;;14.20;3.60;;;;;;;2.17;26.70;101530.30;1821499;78;21557;-68
2022/03/11 06:54:49;;;;;;;14.20;4.05;;;;;;;2.26;27.28;101530.48;1815857;78;21045;-68
2022/03/11 06:57:17;;;;;;;14.43;3.35;;;;;;;2.44;26.95;101535.16;1797020;79;21033;-69
2022/03/11 06:59:45;;;;;;;13.15;3.87;;;;;;;2.09;26.33;101527.95;1796498;79;21239;-69
2022/03/11 07:02:12;;;;;;;15.70;4.28;;;;;;;1.90;27.06;101531.91;1796819;79;21077;-69
2022/03/11 07:04:39;;;;;;;17.52;3.98;;;;;;;1.70;26.36;101537.97;1796492;79;21084;-68
2022/03/11 07:07:06;;;;;;;13.03;3.62;;;;;;;1.55;26.92;101532.45;1796497;79;21660;-69
2022/03/11 07:09:33;;;;;;;18.12;4.10;;;;;;;1.71;26.80;101534.55;1796634;79;21046;-69
2022/03/11 07:12:03;;;;;;;17.12;3.85;;;;;;;1.78;26.68;101533.83;1797076;78;21106;-69
2022/03/11 07:14:33;;;;;;;;;;;;;;;2.09;26.19;101531.86;1799218;79;21587;-68
2022/03/11 07:17:00;;;;;;;18.75;3.45;;;;;;;2.13;25.81;101538.87;1796684;79;20158;-68
2022/03/11 07:19:30;;;;;;;12.00;3.62;;;;;;;2.26;26.05;101542.61;1796557;79;21538;-69
2022/03/11 07:21:58;;;;;;;11.63;3.20;;;;;;;2.43;25.23;101540.31;1797132;79;21104;-69
2022/03/11 07:24:24;;;;;;;19.48;3.70;;;;;;;2.67;25.74;101543.38;1796688;79;21197;-68
2022/03/11 07:26:51;;;;;;;16.75;3.83;;;;;;;2.95;25.56;101532.15;1796935;79;21043;-67
2022/03/11 07:29:18;;;;;;;17.02;3.60;;;;;;;2.54;24.68;101541.40;1786253;79;21030;-69
2022/03/11 07:31:45;;;;;;;16.87;3.12;;;;;;;2.35;25.37;101542.78;1785616;79;21010;-68
2022/03/11 07:34:12;;;;;;;21.07;3.58;;;;;;;2.55;25.84;101543.56;1785612;80;21093;-69
2022/03/11 07:36:39;;;;;;;13.78;3.70;;;;;;;2.66;24.73;101539.01;1785689;80;22125;-69
2022/03/11 07:39:07;;;;;;;23.98;3.33;;;;;;;2.77;25.37;101536.61;1785519;80;21574;-68
2022/03/11 07:41:34;;;;;;;23.87;3.80;;;;;;;2.70;24.00;101546.03;1785502;80;21033;-68
2022/03/11 07:44:01;;;;;;;23.02;3.70;;;;;;;2.66;24.21;101552.45;1785963;80;21010;-69
2022/03/11 07:46:29;;;;;;;24.25;4.17;;;;;;;2.62;24.52;101535.92;1785504;80;20979;-69
2022/03/11 07:48:57;;;;;;;19.42;3.58;;;;;;;2.49;24.64;101535.25;1793088;79;21213;-69
2022/03/11 07:51:25;;;;;;;15.95;2.92;;;;;;;2.22;24.55;101546.85;1789883;79;21065;-69
2022/03/11 07:53:51;;;;;;;19.37;3.25;;;;;;;1.61;24.74;101550.75;1812925;78;20972;-68
2022/03/11 07:56:18;;;;;;;14.07;3.00;;;;;;;1.36;25.25;101541.55;1812627;78;21619;-68
2022/03/11 07:58:45;;;;;;;28.62;3.90;;;;;;;1.65;25.41;101527.91;1812741;78;20998;-68
2022/03/11 08:01:12;;;;;;;18.87;3.62;;;;;;;1.99;24.89;101540.32;1812467;79;21259;-68
2022/03/11 08:03:43;;;;;;;20.48;3.45;;;;;;;2.53;25.15;101538.33;1812953;78;21022;-69
2022/03/11 08:06:11;;;;;;;25.40;3.67;;;;;;;3.04;24.06;101527.09;1812569;78;21080;-68
2022/03/11 08:08:38;;;;;;;23.02;2.95;;;;;;;3.41;23.41;101523.75;1812814;79;21006;-68
2022/03/11 08:11:06;;;;;;;26.07;3.70;;;;;;;3.68;22.71;101514.55;1812397;79;21010;-68
2022/03/11 08:13:34;;;;;;;17.27;2.85;;;;;;;3.98;23.08;101520.63;1812361;78;21699;-69
2022/03/11 08:16:01;;;;;;;14.85;3.40;;;;;;;4.28;23.37;101508.36;1812388;78;21585;-69
2022/03/11 08:18:30;;;;;;;28.73;3.33;;;;;;;4.62;22.33;101521.72;1812673;78;21076;-69
2022/03/11 08:20:58;;;;;;;14.63;3.10;;;;;;;5.02;22.14;101522.09;1812362;79;21041;-69
2022/03/11 08:23:24;;;;;;;21.93;4.15;;;;;;;5.06;22.54;101518.63;1812624;79;21085;-69
2022/03/11 08:25:51;;;;;;;26.42;3.90;;;;;;;5.24;21.95;101527.94;1812447;78;21107;-69
2022/03/11 08:28:21;;;;;;;19.90;4.03;;;;;;;5.33;21.99;101515.78;1817987;78;21053;-69
2022/03/11 08:30:47;;;;;;;17.80;3.90;;;;;;;5.22;21.80;101515.30;1826945;78;21111;-70
2022/03/11 08:33:20;;;;;;;17.23;3.35;;;;;;;5.07;21.65;101521.70;1826808;78;21519;-69
2022/03/11 08:35:44;;;;;;;16.62;3.62;;;;;;;4.86;21.32;101509.78;1826621;78;21036;-69
2022/03/11 08:38:11;;;;;;;23.15;4.17;;;;;;;4.77;22.04;101514.48;1826800;78;21193;-68
2022/03/11 08:40:38;;;;;;;24.80;4.08;;;;;;;4.67;21.98;101522.67;1826668;78;21089;-69
2022/03/11 08:43:05;;;;;;;20.72;3.47;;;;;;;4.20;21.32;101512.60;1827033;78;21017;-69
2022/03/11 08:45:32;;;;;;;16.70;3.10;;;;;;;3.99;22.08;101506.28;1826766;78;21045;-68
2022/03/11 08:47:59;;;;;;;17.20;3.05;;;;;;;4.12;22.44;101514.27;1826864;78;21044;-68
2022/03/11 08:50:26;;;;;;;21.62;3.27;;;;;;;4.37;21.79;101516.69;1809710;78;21117;-69
2022/03/11 08:52:55;;;;;;;14.30;3.22;;;;;;;4.36;21.08;101524.95;1769518;81;21074;-68
2022/03/11 08:55:22;;;;;;;16.23;2.90;;;;;;;4.16;21.24;101523.84;1752456;82;21361;-68
2022/03/11 08:57:51;;;;;;;13.25;2.72;;;;;;;4.13;20.80;101526.43;1753073;82;21065;-68
2022/03/11 09:00:21;;;;;;;21.80;2.72;;;;;;;4.35;21.42;101518.44;1753654;82;21049;-70
2022/03/11 09:02:47;;;;;;;22.22;3.47;;;;;;;4.57;21.18;101513.86;1753217;82;21228;-68
2022/03/11 09:05:17;;;;;;;21.65;3.30;;;;;;;4.95;21.30;101513.78;1752888;82;21069;-68
2022/03/11 09:07:42;;;;;;;13.58;2.77;;;;;;;5.28;21.26;101513.58;1750563;82;21100;-69
2022/03/11 09:10:11;;;;;;;21.23;3.10;;;;;;;5.28;20.61;101526.64;1750615;82;21532;-69
2022/03/11 09:12:38;;;;;;;18.48;3.60;;;;;;;5.12;20.71;101504.32;1750844;82;22265;-69
2022/03/11 09:15:07;;;;;;;12.45;3.70;;;;;;;4.73;20.34;101514.87;1750842;82;21304;-68
2022/03/11 09:17:34;;;;;;;18.67;3.70;;;;;;;4.69;21.25;101511.78;1750482;82;21076;-69
2022/03/11 09:20:06;;;;;;;20.02;5.47;;;;;;;4.90;21.43;101519.37;1750419;82;21520;-68
2022/03/11 09:22:34;;;;;;;27.70;5.50;;;;;;;5.10;20.85;101513.01;1750755;82;21045;-69
2022/03/11 09:25:04;;;;;;;23.52;5.95;;;;;;;5.34;20.63;101511.02;1750704;82;21040;-69
2022/03/11 09:27:30;;;;;;;21.37;6.15;;;;;;;5.35;20.20;101510.14;1750511;82;21140;-69
2022/03/11 09:29:57;;;;;;;23.62;5.97;;;;;;;5.35;20.70;101520.59;1750409;80;21042;-68
2022/03/11 09:32:25;;;;;;;29.77;5.80;;;;;;;5.44;20.81;101520.66;1720929;82;21104;-69
2022/03/11 09:34:53;;;;;;;16.57;4.87;;;;;;;5.52;20.62;101518.97;1752656;81;21077;-69
2022/03/11 09:37:20;;;;;;;20.50;4.95;;;;;;;5.53;19.99;101516.79;1756339;81;21631;-68
2022/03/11 09:39:46;;;;;;;25.12;5.72;;;;;;;5.42;20.10;101524.98;1756426;81;21282;-68
2022/03/11 09:42:13;;;;;;;23.18;4.60;;;;;;;5.36;20.27;101523.62;1756338;81;21053;-69
2022/03/11 09:44:41;;;;;;;13.88;4.12;;;;;;;5.44;20.56;101523.27;1756001;81;21540;-68
2022/03/11 09:47:08;;;;;;;19.52;4.45;;;;;;;5.48;20.03;101522.42;1756490;81;21632;-68
2022/03/11 09:49:36;;;;;;;25.43;4.80;;;;;;;5.34;21.03;101518.86;1770692;80;21052;-69
2022/03/11 09:52:07;;;;;;;17.07;3.83;;;;;;;4.96;20.19;101519.43;1783009;80;21199;-68
2022/03/11 09:54:35;;;;;;;14.07;3.98;;;;;;;4.87;21.43;101516.74;1782892;80;21057;-68
2022/03/11 09:57:03;;;;;;;8.63;2.95;;;;;;;4.98;21.46;101516.41;1783084;80;21026;-68
2022/03/11 09:59:30;;;;;;;16.97;2.52;;;;;;;4.82;20.35;101529.31;1783227;80;21068;-69
2022/03/11 10:01:57;;;;;;;12.58;2.75;;;;;;;4.51;20.48;101524.25;1782954;80;21497;-68
2022/03/11 10:04:25;;;;;;;14.15;2.75;;;;;;;4.39;20.73;101517.17;1782669;80;22001;-69
2022/03/11 10:06:52;;;;;;;16.62;3.92;;;;;;;4.39;20.35;101519.78;1782688;80;21548;-69
2022/03/11 10:09:24;;;;;;;7.33;3.10;;;;;;;4.32;20.23;101517.07;1782958;80;21069;-70
2022/03/11 10:11:53;;;;;;;5.30;1.92;;;;;;;4.32;20.46;101515.33;1783016;80;21053;-70
2022/03/11 10:14:35;;;;;;;9.73;2.15;;;;;;;4.29;20.31;101510.09;1783289;80;21005;-68
2022/03/11 10:17:04;;;;;;;8.18;2.00;;;;;;;4.07;19.72;101510.70;1783088;80;21588;-68
2022/03/11 10:19:32;;;;;;;4.85;2.27;;;;;;;3.92;20.38;101504.89;1754348;80;21128;-69
2022/03/11 10:22:00;;;;;;;7.10;2.47;;;;;;;4.13;20.39;101505.57;1783108;80;21256;-68
2022/03/11 10:24:27;;;;;;;4.45;1.85;;;;;;;4.35;20.19;101505.39;1782910;80;21575;-68
2022/03/11 10:26:58;;;;;;;10.70;2.12;;;;;;;4.55;20.19;101499.91;1783004;80;21014;-68
2022/03/11 10:29:29;;;;;;;8.10;1.87;;;;;;;4.70;20.05;101510.95;1754439;80;21850;-69
2022/03/11 10:31:57;;;;;;;7.97;2.05;;;;;;;4.48;20.16;101512.89;1783071;80;21643;-67
2022/03/11 10:34:35;;;;;;;5.97;2.17;;;;;;;4.35;20.26;101502.34;1782936;80;21482;-69
2022/03/11 10:37:06;;;;;;;10.40;2.20;;;;;;;4.52;20.64;101512.08;1783027;80;21092;-68
2022/03/11 10:39:43;;;;;;;4.87;2.00;;;;;;;4.71;20.16;101499.63;1783121;80;21584;-70
2022/03/11 10:42:20;;;;;;;11.78;2.00;;;;;;;4.53;20.16;101512.10;1782868;80;22203;-68
2022/03/11 10:45:07;;;;;;;5.78;1.90;;;;;;;4.51;20.04;101502.08;1782106;80;21029;-68
2022/03/11 10:47:39;;;;;;;13.93;2.60;;;;;;;4.68;19.53;101503.53;1736581;80;21533;-69
2022/03/11 10:50:12;;;;;;;8.80;2.33;;;;;;;4.50;20.12;101511.18;1783334;80;21045;-68
2022/03/11 10:52:44;;;;;;;9.23;2.90;;;;;;;4.67;20.35;101510.92;1783333;80;21006;-67
2022/03/11 10:55:29;;;;;;;12.53;2.77;;;;;;;4.76;20.34;101507.09;1783206;80;21402;-70
2022/03/11 10:58:01;;;;;;;12.50;1.90;;;;;;;4.97;20.00;101487.22;1782926;80;21072;-69
2022/03/11 11:00:36;;;;;;;5.12;1.80;;;;;;;5.19;19.43;101499.58;1782913;80;21565;-68
2022/03/11 11:03:05;;;;;;;4.37;1.77;;;;;;;4.88;19.72;101496.28;1782981;80;21077;-70
2022/03/11 11:05:33;;;;;;;4.55;1.82;;;;;;;4.86;20.18;101500.65;1754912;80;21065;-69
2022/03/11 11:08:03;;;;;;;5.60;1.90;;;;;;;4.88;20.07;101495.88;1782788;80;21260;-69
2022/03/11 11:10:33;;;;;;;6.37;1.82;;;;;;;4.79;20.35;101496.67;1783210;80;21057;-69
2022/03/11 11:13:03;;;;;;;2.87;1.57;;;;;;;4.84;20.21;101489.75;1754626;80;21569;-68
2022/03/11 11:15:30;;;;;;;14.23;2.15;;;;;;;4.77;20.25;101486.64;1782984;80;21041;-69
2022/03/11 11:17:59;;;;;;;8.15;2.47;;;;;;;4.96;20.16;101485.48;1783010;80;21092;-69
2022/03/11 11:20:48;;;;;;;12.90;1.80;;;;;;;4.86;20.82;101487.16;1783060;80;21907;-68
2022/03/11 11:23:16;;;;;;;7.22;2.58;;;;;;;4.82;20.23;101488.86;1783456;80;21108;-69
2022/03/11 11:25:44;;;;;;;4.37;1.70;;;;;;;4.66;20.70;101494.80;1782941;80;21050;-68
2022/03/11 11:28:18;;;;;;;9.83;2.42;;;;;;;4.59;20.70;101493.01;1783117;80;21139;-68
2022/03/11 11:30:45;;;;;;;8.98;1.95;;;;;;;4.44;20.97;101489.84;1750329;80;21046;-68
2022/03/11 11:33:14;;;;;;;4.58;1.90;;;;;;;4.27;20.99;101484.42;1737333;82;21605;-67
2022/03/11 11:35:43;;;;;;;5.00;1.50;;;;;;;3.87;20.88;101483.98;1750213;82;21019;-68
2022/03/11 11:38:29;;;;;;;7.42;2.00;;;;;;;3.66;21.26;101487.61;1750433;82;21077;-68
2022/03/11 11:40:58;;;;;;;3.40;1.45;;;;;;;3.48;21.19;101483.92;1729403;82;21030;-68
2022/03/11 11:43:31;;;;;;;7.75;1.87;;;;;;;3.38;21.49;101492.44;1750164;82;21018;-68